Time;durP1;ratioP1;P1;durP2;ratioP2;P2;SDS_P1;SDS_P2;PMS_P1;PMS_P2;Temp;Humidity;BMP_temperature;BMP_pressure;BME280_temperature;BME280_humidity;BME280_pressure;Samples;Min_cycle;Max_cycle;Signal;HPM_P1;HPM_P2
2021/03/22 00:00:15;;;;;;;16.67;9.80;;;3.50;70.60;;;;;;5046516;28;20216;-67
2021/03/22 00:02:40;;;;;;;18.45;9.60;;;3.60;70.60;;;;;;5045886;28;20049;-66
2021/03/22 00:05:06;;;;;;;16.38;9.48;;;3.50;71.00;;;;;;5045940;28;20034;-66
2021/03/22 00:07:32;;;;;;;19.10;10.05;;;3.60;70.60;;;;;;5045456;28;20203;-66
2021/03/22 00:09:58;;;;;;;18.25;10.20;;;3.40;71.00;;;;;;5045557;28;20090;-66
2021/03/22 00:12:23;;;;;;;17.65;9.95;;;3.50;71.20;;;;;;5045336;28;20037;-66
2021/03/22 00:14:49;;;;;;;17.38;10.23;;;3.40;71.20;;;;;;5047210;28;20033;-66
2021/03/22 00:17:14;;;;;;;16.13;9.50;;;3.50;71.30;;;;;;5045651;28;20068;-66
2021/03/22 00:19:39;;;;;;;16.45;9.70;;;3.60;71.20;;;;;;5045405;28;20080;-66
2021/03/22 00:22:05;;;;;;;17.10;10.20;;;3.60;70.90;;;;;;5045622;28;20225;-66
2021/03/22 00:24:31;;;;;;;17.25;10.18;;;3.50;71.30;;;;;;5045305;28;20033;-66
2021/03/22 00:26:56;;;;;;;19.05;10.13;;;3.50;71.50;;;;;;5046705;28;20030;-66
2021/03/22 00:29:22;;;;;;;16.98;10.18;;;3.60;71.40;;;;;;5045546;28;20040;-66
2021/03/22 00:31:47;;;;;;;19.92;10.15;;;3.60;71.10;;;;;;5045346;28;20038;-66
2021/03/22 00:34:13;;;;;;;19.25;10.57;;;3.60;71.00;;;;;;5045169;28;20044;-66
2021/03/22 00:36:38;;;;;;;16.35;9.95;;;3.60;71.20;;;;;;5040907;28;20038;-66
2021/03/22 00:39:04;;;;;;;17.27;9.63;;;3.50;71.20;;;;;;5026716;28;20038;-67
2021/03/22 00:41:30;;;;;;;15.40;9.82;;;3.60;71.10;;;;;;5043517;28;20101;-66
2021/03/22 00:43:55;;;;;;;18.20;11.07;;;3.50;71.00;;;;;;5044619;28;20039;-66
2021/03/22 00:46:21;;;;;;;17.02;9.85;;;3.50;71.20;;;;;;5044622;28;20053;-66
2021/03/22 00:48:46;;;;;;;18.98;9.65;;;3.50;71.60;;;;;;5044691;28;20217;-66
2021/03/22 00:51:12;;;;;;;18.20;10.05;;;3.50;71.20;;;;;;5043362;28;20033;-67
2021/03/22 00:53:37;;;;;;;18.23;10.73;;;3.60;71.50;;;;;;5046244;28;20090;-66
2021/03/22 00:56:03;;;;;;;16.98;9.82;;;3.50;71.20;;;;;;5044452;28;20048;-66
2021/03/22 00:58:29;;;;;;;20.90;10.18;;;3.50;71.50;;;;;;5044420;28;20041;-66
2021/03/22 01:00:55;;;;;;;17.80;9.60;;;3.40;71.60;;;;;;5043460;28;20067;-66
2021/03/22 01:03:29;;;;;;;19.75;10.43;;;3.40;71.70;;;;;;5043024;28;20053;-66
2021/03/22 01:05:55;;;;;;;17.17;9.50;;;3.60;71.60;;;;;;5045219;28;20057;-66
2021/03/22 01:08:21;;;;;;;21.08;10.82;;;3.60;71.60;;;;;;5044869;28;20037;-66
2021/03/22 01:10:48;;;;;;;19.50;10.05;;;3.60;71.20;;;;;;5043129;28;20030;-66
2021/03/22 01:13:17;;;;;;;19.52;9.90;;;3.50;71.20;;;;;;5044151;28;20087;-66
2021/03/22 01:15:42;;;;;;;16.55;10.38;;;3.50;71.30;;;;;;5043428;28;20034;-66
2021/03/22 01:18:08;;;;;;;19.17;10.23;;;3.40;71.60;;;;;;5045745;28;20031;-67
2021/03/22 01:20:45;;;;;;;16.80;9.57;;;3.40;71.70;;;;;;5043278;28;20044;-66
2021/03/22 01:23:11;;;;;;;16.17;9.18;;;3.50;71.40;;;;;;5043391;28;20112;-66
2021/03/22 01:25:37;;;;;;;18.65;9.98;;;3.60;71.40;;;;;;5044187;28;20033;-66
2021/03/22 01:28:03;;;;;;;18.45;9.63;;;3.50;71.70;;;;;;5044054;28;20034;-66
2021/03/22 01:30:37;;;;;;;18.92;10.05;;;3.50;71.50;;;;;;5026498;28;20037;-66
2021/03/22 01:33:05;;;;;;;17.73;10.18;;;3.50;71.90;;;;;;5045765;28;20057;-66
2021/03/22 01:35:30;;;;;;;18.10;10.27;;;3.50;71.70;;;;;;5043146;28;20037;-66
2021/03/22 01:37:56;;;;;;;19.73;9.95;;;3.60;71.70;;;;;;5043869;28;20034;-66
2021/03/22 01:40:45;;;;;;;20.98;9.75;;;3.60;71.60;;;;;;5044090;28;20041;-66
2021/03/22 01:44:02;;;;;;;20.52;9.82;;;3.60;71.40;;;;;;5042862;28;20044;-66
2021/03/22 01:46:28;;;;;;;18.23;9.82;;;3.70;71.30;;;;;;5010496;28;20313;-66
2021/03/22 01:48:53;;;;;;;21.42;10.20;;;3.60;71.50;;;;;;5042654;28;20029;-66
2021/03/22 01:51:19;;;;;;;21.45;10.40;;;3.60;71.90;;;;;;5043803;28;20036;-66
2021/03/22 01:53:45;;;;;;;16.73;9.85;;;3.50;71.80;;;;;;5027916;28;20033;-66
2021/03/22 01:56:22;;;;;;;18.52;10.05;;;3.50;71.90;;;;;;5026222;28;20034;-66
2021/03/22 01:58:48;;;;;;;19.08;10.00;;;3.60;71.80;;;;;;5043441;28;20336;-66
2021/03/22 02:01:14;;;;;;;19.75;10.13;;;3.50;71.90;;;;;;5043301;28;20049;-66
2021/03/22 02:03:40;;;;;;;18.67;10.45;;;3.50;72.00;;;;;;5043060;28;20268;-66
2021/03/22 02:06:05;;;;;;;21.38;10.93;;;3.60;71.90;;;;;;5043812;28;20033;-66
2021/03/22 02:08:33;;;;;;;20.95;9.70;;;3.60;72.00;;;;;;5043689;28;20033;-66
2021/03/22 02:10:58;;;;;;;21.77;10.07;;;3.60;72.00;;;;;;5025195;28;20033;-66
2021/03/22 02:13:28;;;;;;;20.55;9.95;;;3.50;71.90;;;;;;5042019;28;20097;-66
2021/03/22 02:16:01;;;;;;;21.08;10.38;;;3.60;72.10;;;;;;5026016;28;20040;-66
2021/03/22 02:18:38;;;;;;;17.25;9.55;;;3.60;72.00;;;;;;5041924;28;20348;-66
2021/03/22 02:21:28;;;;;;;19.33;8.95;;;3.70;71.90;;;;;;5043850;28;20088;-66
2021/03/22 02:24:21;;;;;;;20.92;10.02;;;3.60;71.90;;;;;;5043444;28;20100;-66
2021/03/22 02:27:05;;;;;;;22.42;10.57;;;3.60;72.00;;;;;;5043775;28;20324;-66
2021/03/22 02:29:38;;;;;;;19.30;10.52;;;3.60;72.10;;;;;;5042808;28;20333;-66
2021/03/22 02:32:09;;;;;;;22.13;10.32;;;3.60;72.10;;;;;;5042141;28;20037;-66
2021/03/22 02:34:51;;;;;;;;;;;3.60;72.00;;;;;;5043495;28;20037;-66
2021/03/22 02:37:26;;;;;;;;;;;3.60;72.10;;;;;;5043347;28;19905;-66
2021/03/22 02:40:01;;;;;;;19.45;9.05;;;3.50;72.30;;;;;;5042696;28;20023;-66
2021/03/22 02:42:27;;;;;;;21.58;9.85;;;3.60;72.40;;;;;;5026017;28;20217;-66
2021/03/22 02:44:53;;;;;;;23.02;9.88;;;3.60;72.40;;;;;;5043471;28;20072;-66
2021/03/22 02:47:20;;;;;;;22.98;10.15;;;3.70;72.20;;;;;;5042163;28;20101;-66
2021/03/22 02:49:45;;;;;;;21.52;10.55;;;3.60;72.20;;;;;;5042348;28;20045;-67
2021/03/22 02:52:26;;;;;;;23.33;9.82;;;3.70;72.00;;;;;;5041381;28;20276;-66
2021/03/22 02:55:10;;;;;;;18.35;9.82;;;3.70;72.10;;;;;;5037081;28;20237;-66
2021/03/22 02:57:44;;;;;;;21.38;9.70;;;3.80;71.90;;;;;;5025568;28;20107;-66
2021/03/22 03:00:40;;;;;;;20.15;10.32;;;3.80;72.10;;;;;;5042666;28;20040;-68
2021/03/22 03:03:10;;;;;;;27.05;10.77;;;3.70;72.20;;;;;;5000515;28;20046;-66
2021/03/22 03:05:36;;;;;;;21.10;10.35;;;3.70;72.40;;;;;;5025965;28;20100;-66
2021/03/22 03:08:12;;;;;;;18.13;10.65;;;3.70;72.30;;;;;;5041530;28;20034;-66
2021/03/22 03:10:37;;;;;;;24.45;9.88;;;3.70;72.50;;;;;;5013070;28;20034;-66
2021/03/22 03:13:03;;;;;;;23.85;10.10;;;3.60;72.30;;;;;;5029785;28;20233;-66
2021/03/22 03:15:28;;;;;;;22.60;10.48;;;3.80;72.10;;;;;;5041748;28;20048;-66
2021/03/22 03:17:54;;;;;;;20.33;9.82;;;3.80;72.20;;;;;;5043872;28;20224;-66
2021/03/22 03:20:25;;;;;;;20.55;9.43;;;3.80;72.10;;;;;;5023921;28;20080;-66
2021/03/22 03:22:51;;;;;;;24.20;10.50;;;3.70;72.20;;;;;;5036567;28;20099;-66
2021/03/22 03:25:17;;;;;;;25.35;9.63;;;3.80;72.30;;;;;;5046034;28;20037;-66
2021/03/22 03:27:42;;;;;;;25.10;9.68;;;3.80;72.00;;;;;;5046214;28;20052;-66
2021/03/22 03:30:10;;;;;;;21.77;9.27;;;3.80;71.80;;;;;;5048075;28;20030;-66
2021/03/22 03:32:36;;;;;;;23.50;9.77;;;3.80;71.60;;;;;;5045399;28;20041;-66
2021/03/22 03:35:02;;;;;;;22.00;9.77;;;3.80;71.90;;;;;;5045024;28;20039;-66
2021/03/22 03:37:28;;;;;;;19.60;9.95;;;3.80;72.00;;;;;;5046159;28;20095;-66
2021/03/22 03:39:53;;;;;;;21.95;9.32;;;3.80;71.80;;;;;;5045900;28;20053;-66
2021/03/22 03:42:19;;;;;;;20.50;8.98;;;3.80;72.00;;;;;;5045812;28;20038;-66
2021/03/22 03:44:44;;;;;;;25.23;9.60;;;3.80;71.90;;;;;;5047514;28;20221;-66
2021/03/22 03:47:10;;;;;;;22.83;9.07;;;3.80;71.80;;;;;;5046212;28;20216;-66
2021/03/22 03:49:35;;;;;;;22.38;7.85;;;3.80;72.10;;;;;;5045745;28;20247;-66
2021/03/22 03:52:03;;;;;;;27.55;8.88;;;3.80;72.00;;;;;;5038823;28;20038;-66
2021/03/22 03:54:28;;;;;;;25.95;9.45;;;3.80;71.60;;;;;;5008778;28;20218;-66
2021/03/22 03:56:54;;;;;;;25.85;8.95;;;3.80;71.80;;;;;;5027715;28;20085;-66
2021/03/22 03:59:19;;;;;;;26.80;8.82;;;3.80;71.50;;;;;;5043941;28;20056;-66
2021/03/22 04:01:45;;;;;;;28.50;9.70;;;3.80;71.80;;;;;;5045077;28;20061;-66
2021/03/22 04:04:10;;;;;;;23.20;8.50;;;3.90;71.60;;;;;;5044284;28;20037;-66
2021/03/22 04:06:36;;;;;;;21.70;7.82;;;3.80;71.70;;;;;;5044184;28;20037;-66
2021/03/22 04:09:06;;;;;;;23.63;9.45;;;3.80;71.60;;;;;;5045850;28;20212;-66
2021/03/22 04:11:37;;;;;;;28.60;8.97;;;3.80;71.90;;;;;;5043545;28;20041;-66
2021/03/22 04:14:03;;;;;;;25.50;9.77;;;3.80;71.90;;;;;;5044500;28;20255;-66
2021/03/22 04:16:29;;;;;;;22.13;9.13;;;3.70;72.10;;;;;;5044255;28;20033;-66
2021/03/22 04:18:55;;;;;;;24.33;10.90;;;3.80;72.10;;;;;;5043945;28;20125;-66
2021/03/22 04:21:24;;;;;;;25.02;9.18;;;3.80;72.20;;;;;;5044468;28;20036;-66
2021/03/22 04:23:50;;;;;;;25.92;8.90;;;3.80;72.20;;;;;;5045002;28;20076;-66
2021/03/22 04:26:15;;;;;;;26.70;9.50;;;3.80;72.10;;;;;;5044350;28;20198;-66
2021/03/22 04:28:41;;;;;;;28.55;9.70;;;3.70;72.30;;;;;;5042934;28;20136;-66
2021/03/22 04:31:07;;;;;;;18.63;8.90;;;3.80;72.30;;;;;;5042890;28;20092;-66
2021/03/22 04:33:33;;;;;;;23.98;9.48;;;3.80;72.30;;;;;;5042775;28;20322;-66
2021/03/22 04:35:59;;;;;;;23.33;9.38;;;3.80;72.20;;;;;;5044480;28;20033;-67
2021/03/22 04:38:24;;;;;;;20.60;9.63;;;3.80;72.10;;;;;;5042864;28;20048;-66
2021/03/22 04:40:50;;;;;;;23.80;9.00;;;3.80;72.10;;;;;;5043932;28;20029;-66
2021/03/22 04:43:16;;;;;;;21.60;8.65;;;3.80;72.20;;;;;;5042767;28;20037;-66
2021/03/22 04:45:41;;;;;;;20.60;8.30;;;3.70;72.10;;;;;;5043686;28;20034;-66
2021/03/22 04:48:07;;;;;;;23.48;8.75;;;3.90;72.10;;;;;;5045524;28;20089;-66
2021/03/22 04:50:33;;;;;;;27.75;8.98;;;3.90;71.70;;;;;;5026041;28;20029;-66
2021/03/22 04:52:58;;;;;;;23.42;9.10;;;3.80;72.10;;;;;;5044002;28;20057;-66
2021/03/22 04:55:25;;;;;;;26.40;8.30;;;3.90;71.90;;;;;;5043495;28;20107;-66
2021/03/22 04:57:50;;;;;;;24.55;8.40;;;3.80;71.80;;;;;;5042541;28;20072;-66
2021/03/22 05:00:44;;;;;;;21.63;8.55;;;3.90;72.10;;;;;;5043744;28;20037;-66
2021/03/22 05:03:14;;;;;;;29.98;8.40;;;3.80;71.90;;;;;;5024119;28;508118;-68
2021/03/22 05:05:40;;;;;;;19.38;7.53;;;3.80;71.80;;;;;;5046291;28;20025;-66
2021/03/22 05:08:07;;;;;;;29.40;8.40;;;3.80;71.80;;;;;;5044665;28;20109;-66
2021/03/22 05:10:35;;;;;;;25.35;8.73;;;3.90;71.90;;;;;;5043152;28;20033;-66
2021/03/22 05:13:01;;;;;;;24.30;8.10;;;3.90;71.50;;;;;;5044346;28;20068;-66
2021/03/22 05:15:27;;;;;;;27.80;7.40;;;3.90;71.60;;;;;;5044434;28;20293;-66
2021/03/22 05:17:53;;;;;;;21.30;7.28;;;3.80;71.30;;;;;;5046031;28;20033;-66
2021/03/22 05:20:30;;;;;;;25.38;7.70;;;3.90;71.70;;;;;;5044610;28;20048;-66
2021/03/22 05:22:56;;;;;;;26.08;7.55;;;3.90;71.60;;;;;;5044481;28;20325;-66
2021/03/22 05:25:21;;;;;;;24.63;6.88;;;3.90;71.50;;;;;;5042818;28;20097;-66
2021/03/22 05:27:47;;;;;;;23.98;7.38;;;3.90;71.20;;;;;;5043886;28;20040;-66
2021/03/22 05:30:14;;;;;;;24.17;6.88;;;3.90;71.40;;;;;;5044159;28;20292;-67
2021/03/22 05:32:39;;;;;;;22.80;6.85;;;3.90;71.30;;;;;;5044379;28;20329;-66
2021/03/22 05:35:11;;;;;;;25.30;6.90;;;3.90;71.50;;;;;;5042607;28;20044;-66
2021/03/22 05:37:37;;;;;;;23.40;7.32;;;3.90;71.30;;;;;;5042562;28;20087;-66
2021/03/22 05:40:05;;;;;;;23.85;7.47;;;3.90;71.30;;;;;;5043871;28;20048;-67
2021/03/22 05:42:39;;;;;;;28.15;7.55;;;3.90;71.20;;;;;;5043742;28;20057;-66
2021/03/22 05:45:25;;;;;;;24.00;7.03;;;3.90;71.40;;;;;;5044660;28;20088;-66
2021/03/22 05:47:56;;;;;;;27.42;6.70;;;3.90;71.30;;;;;;5043152;28;20249;-66
2021/03/22 05:50:30;;;;;;;23.25;6.90;;;3.90;71.20;;;;;;5027141;28;20043;-66
2021/03/22 05:53:14;;;;;;;29.70;7.20;;;3.90;71.20;;;;;;5042518;28;20105;-66
2021/03/22 05:55:53;;;;;;;25.90;7.43;;;3.90;71.10;;;;;;5027243;28;20048;-66
2021/03/22 05:58:30;;;;;;;23.20;6.25;;;3.90;71.00;;;;;;5042450;28;20293;-67
2021/03/22 06:01:16;;;;;;;26.13;6.00;;;4.00;71.10;;;;;;5042564;28;20076;-67
2021/03/22 06:03:56;;;;;;;22.77;6.32;;;4.00;70.80;;;;;;5041874;28;20053;-65
2021/03/22 06:06:28;;;;;;;25.50;6.53;;;4.00;71.20;;;;;;5042348;28;20037;-66
2021/03/22 06:09:22;;;;;;;26.48;7.13;;;4.00;71.10;;;;;;5027598;28;20247;-65
2021/03/22 06:11:57;;;;;;;25.67;6.47;;;3.90;71.20;;;;;;5042971;28;20043;-65
2021/03/22 06:14:33;;;;;;;25.45;6.07;;;3.90;71.20;;;;;;5043528;28;20268;-65
2021/03/22 06:17:11;;;;;;;27.63;6.40;;;4.00;71.50;;;;;;5026995;28;20044;-66
2021/03/22 06:19:38;;;;;;;28.88;6.65;;;4.10;71.20;;;;;;5009806;28;20064;-64
2021/03/22 06:22:04;;;;;;;31.55;7.70;;;4.20;71.20;;;;;;5025738;28;20120;-65
2021/03/22 06:24:30;;;;;;;25.33;6.50;;;4.20;70.70;;;;;;5041862;28;20053;-65
2021/03/22 06:26:57;;;;;;;24.65;7.05;;;4.20;70.90;;;;;;5044707;28;20056;-64
2021/03/22 06:29:34;;;;;;;23.23;6.30;;;4.20;70.70;;;;;;5009176;28;20033;-64
2021/03/22 06:32:01;;;;;;;21.20;6.40;;;4.20;70.50;;;;;;5043004;28;20052;-65
2021/03/22 06:35:05;;;;;;;26.27;6.05;;;4.20;70.00;;;;;;5025669;28;20083;-65
2021/03/22 06:37:33;;;;;;;25.58;6.43;;;4.20;70.40;;;;;;5042926;28;20044;-65
2021/03/22 06:40:28;;;;;;;23.88;6.15;;;4.30;70.10;;;;;;5043192;28;20037;-65
2021/03/22 06:43:12;;;;;;;23.30;6.28;;;4.30;69.90;;;;;;5041778;28;20045;-64
2021/03/22 06:45:40;;;;;;;20.95;5.05;;;4.40;70.00;;;;;;5042584;28;20033;-63
2021/03/22 06:48:29;;;;;;;25.30;5.45;;;4.40;69.60;;;;;;5043366;28;20044;-65
2021/03/22 06:51:03;;;;;;;20.83;5.55;;;4.50;69.20;;;;;;5026665;28;20076;-64
2021/03/22 06:53:37;;;;;;;29.15;6.32;;;4.50;69.40;;;;;;5042694;28;20041;-64
2021/03/22 06:56:18;;;;;;;22.25;5.65;;;4.50;69.10;;;;;;5042708;28;20033;-65
2021/03/22 06:58:43;;;;;;;25.10;5.65;;;4.50;68.90;;;;;;5042666;28;20091;-64
2021/03/22 07:01:26;;;;;;;22.95;4.95;;;4.50;68.70;;;;;;5041294;28;20121;-64
2021/03/22 07:03:52;;;;;;;26.75;6.40;;;4.50;68.70;;;;;;5042406;28;20094;-65
2021/03/22 07:06:23;;;;;;;21.38;5.38;;;4.50;68.80;;;;;;5042249;28;20029;-64
2021/03/22 07:08:49;;;;;;;;;;;4.40;68.70;;;;;;5043556;28;20093;-64
2021/03/22 07:11:20;;;;;;;20.80;5.57;;;4.40;68.70;;;;;;5042453;28;19912;-64
2021/03/22 07:13:54;;;;;;;26.35;5.85;;;4.40;69.20;;;;;;5042074;28;20048;-64
2021/03/22 07:16:22;;;;;;;18.42;6.10;;;4.40;69.60;;;;;;5042622;28;20061;-63
2021/03/22 07:19:04;;;;;;;23.85;5.72;;;4.40;70.00;;;;;;5042052;28;20309;-64
2021/03/22 07:21:29;;;;;;;;;;;4.30;72.50;;;;;;5043097;28;20093;-64
2021/03/22 07:24:02;;;;;;;28.88;6.57;;;4.30;73.60;;;;;;5042616;28;19951;-65
2021/03/22 07:26:46;;;;;;;25.52;6.25;;;4.20;73.70;;;;;;5041543;28;20047;-64
2021/03/22 07:29:23;;;;;;;28.13;6.25;;;4.10;74.20;;;;;;5040928;28;20025;-64
2021/03/22 07:32:10;;;;;;;32.13;6.95;;;4.20;74.90;;;;;;5042044;28;20055;-64
2021/03/22 07:35:04;;;;;;;20.85;6.13;;;4.20;74.70;;;;;;5041817;28;20030;-64
2021/03/22 07:37:58;;;;;;;21.73;5.72;;;4.30;75.40;;;;;;4995605;28;20334;-64
2021/03/22 07:40:49;;;;;;;25.70;5.40;;;4.40;75.40;;;;;;5031680;28;20037;-64
2021/03/22 07:43:46;;;;;;;25.75;5.95;;;4.40;74.80;;;;;;5025045;28;20065;-64
2021/03/22 07:46:30;;;;;;;20.50;5.13;;;4.40;71.90;;;;;;5041966;28;20026;-64
2021/03/22 07:49:09;;;;;;;25.50;6.47;;;4.70;70.50;;;;;;5040976;28;20032;-64
2021/03/22 07:52:18;;;;;;;28.73;6.03;;;4.80;69.70;;;;;;5041044;28;20029;-64
2021/03/22 07:55:07;;;;;;;24.63;5.60;;;4.70;68.20;;;;;;5040859;28;20340;-64
2021/03/22 07:57:45;;;;;;;23.15;5.30;;;4.90;68.90;;;;;;5040868;28;20092;-64
2021/03/22 08:00:21;;;;;;;21.40;5.35;;;4.90;68.70;;;;;;5040761;28;20096;-65
2021/03/22 08:03:13;;;;;;;34.65;5.43;;;5.10;67.70;;;;;;5043251;28;20049;-64
2021/03/22 08:05:56;;;;;;;;;;;5.10;67.30;;;;;;5005211;28;20224;-64
2021/03/22 08:08:39;;;;;;;23.40;5.93;;;5.10;67.40;;;;;;5042457;28;19905;-64
2021/03/22 08:11:14;;;;;;;25.50;5.72;;;5.10;67.10;;;;;;5044453;28;20049;-65
2021/03/22 08:14:00;;;;;;;24.10;5.20;;;5.20;66.70;;;;;;5028908;28;20096;-64
2021/03/22 08:16:44;;;;;;;24.30;4.88;;;5.20;66.40;;;;;;5044406;28;20037;-64
2021/03/22 08:19:18;;;;;;;24.10;5.00;;;5.40;65.90;;;;;;5045524;28;20034;-64
2021/03/22 08:21:49;;;;;;;21.25;4.80;;;5.90;64.60;;;;;;5044610;28;20099;-65
2021/03/22 08:24:26;;;;;;;22.60;5.05;;;6.00;63.40;;;;;;5044983;28;20044;-65
2021/03/22 08:26:53;;;;;;;18.48;5.03;;;6.10;63.90;;;;;;5045883;28;20234;-64
2021/03/22 08:29:27;;;;;;;24.70;6.18;;;6.10;63.00;;;;;;5044285;28;20275;-64
2021/03/22 08:32:09;;;;;;;28.77;5.10;;;6.10;63.10;;;;;;5044244;28;20030;-64
2021/03/22 08:34:55;;;;;;;22.35;5.10;;;6.20;62.70;;;;;;5028546;28;20109;-64
2021/03/22 08:37:27;;;;;;;27.58;5.30;;;6.30;62.70;;;;;;5044272;28;20332;-64
2021/03/22 08:40:06;;;;;;;21.45;4.85;;;6.30;62.10;;;;;;5028256;28;20075;-64
2021/03/22 08:42:58;;;;;;;19.45;4.75;;;6.20;62.10;;;;;;5043980;28;20029;-64
2021/03/22 08:45:33;;;;;;;27.45;5.32;;;6.20;62.70;;;;;;5031065;28;20261;-64
2021/03/22 08:48:17;;;;;;;30.45;4.90;;;6.10;62.70;;;;;;5027120;28;20041;-64
2021/03/22 08:50:43;;;;;;;25.63;4.82;;;6.10;63.10;;;;;;5024537;28;20105;-64
2021/03/22 08:53:09;;;;;;;17.90;4.50;;;6.20;63.10;;;;;;5031402;28;20048;-64
2021/03/22 08:55:40;;;;;;;25.58;5.82;;;6.20;62.50;;;;;;5044721;28;20041;-64
2021/03/22 08:58:26;;;;;;;31.17;5.45;;;6.20;61.60;;;;;;5044764;28;20065;-64
2021/03/22 09:00:53;;;;;;;23.05;4.65;;;6.10;62.50;;;;;;5044474;28;20312;-64
2021/03/22 09:03:28;;;;;;;23.35;4.50;;;6.10;62.90;;;;;;5026834;28;20348;-65
2021/03/22 09:06:05;;;;;;;21.98;4.88;;;6.20;62.60;;;;;;5046033;28;20030;-64
2021/03/22 09:08:32;;;;;;;27.73;4.88;;;6.20;62.80;;;;;;5044855;28;20038;-64
2021/03/22 09:11:21;;;;;;;23.35;5.43;;;6.30;62.70;;;;;;5044320;28;20033;-64
2021/03/22 09:14:08;;;;;;;24.00;5.00;;;6.50;62.50;;;;;;5043189;28;20276;-64
2021/03/22 09:16:48;;;;;;;22.35;5.45;;;6.90;61.80;;;;;;5042914;28;20037;-64
2021/03/22 09:19:14;;;;;;;27.10;5.43;;;7.20;60.60;;;;;;5027494;28;20068;-64
2021/03/22 09:21:47;;;;;;;25.52;4.85;;;7.10;59.00;;;;;;5042856;28;20303;-64
2021/03/22 09:24:37;;;;;;;28.55;4.85;;;6.90;59.60;;;;;;5045888;28;20400;-64
2021/03/22 09:27:13;;;;;;;24.00;5.10;;;6.70;60.10;;;;;;5044930;28;20381;-64
2021/03/22 09:29:41;;;;;;;26.30;5.57;;;6.40;60.20;;;;;;5044434;28;20191;-64
2021/03/22 09:32:25;;;;;;;26.27;5.50;;;6.40;61.40;;;;;;5042861;28;20038;-64
2021/03/22 09:34:51;;;;;;;25.00;4.85;;;6.20;60.40;;;;;;5044148;28;20415;-64
2021/03/22 09:37:41;;;;;;;26.15;4.88;;;6.00;61.70;;;;;;5043659;28;20038;-64
2021/03/22 09:40:27;;;;;;;20.98;4.88;;;6.10;62.00;;;;;;5043960;28;20034;-64
2021/03/22 09:43:08;;;;;;;21.27;4.57;;;6.10;62.30;;;;;;5030341;28;20033;-64
2021/03/22 09:45:34;;;;;;;;;;;6.10;62.20;;;;;;5044150;28;20117;-64
2021/03/22 09:48:30;;;;;;;19.50;4.50;;;5.90;62.10;;;;;;5044694;28;19924;-64
2021/03/22 09:51:03;;;;;;;31.30;5.28;;;5.90;63.30;;;;;;5033380;28;20025;-64
2021/03/22 09:53:57;;;;;;;21.65;4.95;;;5.90;63.20;;;;;;5043752;28;20329;-64
2021/03/22 09:56:30;;;;;;;25.27;5.10;;;5.90;63.50;;;;;;5042767;28;20101;-64
2021/03/22 09:59:24;;;;;;;19.67;4.90;;;5.90;63.70;;;;;;5042632;28;20041;-64
2021/03/22 10:01:50;;;;;;;25.58;5.88;;;6.00;63.40;;;;;;5043279;28;20057;-64
2021/03/22 10:04:17;;;;;;;24.00;5.05;;;6.00;63.10;;;;;;5042205;28;20049;-64
2021/03/22 10:07:00;;;;;;;25.33;5.50;;;6.00;62.70;;;;;;5043312;28;20033;-63
2021/03/22 10:09:38;;;;;;;25.63;4.90;;;6.20;62.60;;;;;;5043149;28;20033;-64
2021/03/22 10:12:18;;;;;;;24.10;5.35;;;6.30;62.90;;;;;;5044777;28;20079;-63
2021/03/22 10:14:46;;;;;;;29.35;5.40;;;6.50;62.60;;;;;;5044054;28;20033;-64
2021/03/22 10:17:30;;;;;;;25.70;4.88;;;6.60;61.70;;;;;;5042443;28;20336;-64
2021/03/22 10:20:05;;;;;;;26.88;6.03;;;6.70;61.20;;;;;;5042230;28;20143;-65
2021/03/22 10:22:31;;;;;;;20.95;4.43;;;6.90;61.20;;;;;;5015016;28;20357;-64
2021/03/22 10:25:13;;;;;;;29.63;5.40;;;7.00;61.00;;;;;;5027936;28;20026;-66
2021/03/22 10:27:40;;;;;;;21.27;5.43;;;7.10;60.90;;;;;;5023536;28;20061;-64
2021/03/22 10:30:09;;;;;;;21.92;5.22;;;7.20;60.70;;;;;;5024993;28;20293;-64
2021/03/22 10:32:35;;;;;;;22.35;4.68;;;7.30;59.20;;;;;;5022910;28;20042;-65
2021/03/22 10:35:10;;;;;;;26.33;4.93;;;7.40;59.20;;;;;;5036877;28;20080;-64
2021/03/22 10:37:44;;;;;;;21.08;5.05;;;7.60;58.80;;;;;;5041391;28;20029;-64
2021/03/22 10:40:36;;;;;;;21.38;4.90;;;7.50;57.60;;;;;;5041381;28;20114;-64
2021/03/22 10:43:03;;;;;;;24.65;5.32;;;7.40;57.40;;;;;;5026175;28;20057;-64
2021/03/22 10:45:33;;;;;;;34.38;5.43;;;7.20;58.30;;;;;;5041618;28;20248;-64
2021/03/22 10:48:00;;;;;;;20.83;4.53;;;6.90;57.50;;;;;;5044339;28;20037;-64
2021/03/22 10:50:33;;;;;;;25.10;4.60;;;6.90;58.60;;;;;;5042733;28;20057;-65
2021/03/22 10:53:13;;;;;;;24.80;4.60;;;6.80;58.80;;;;;;5041434;28;20052;-65
2021/03/22 10:55:43;;;;;;;22.10;4.80;;;6.70;59.60;;;;;;5042557;28;20104;-64
2021/03/22 10:58:30;;;;;;;13.70;4.75;;;6.60;60.10;;;;;;5041433;28;20143;-64
2021/03/22 11:01:00;;;;;;;22.58;4.85;;;6.50;60.00;;;;;;5041485;28;20071;-64
2021/03/22 11:03:26;;;;;;;27.25;5.13;;;6.50;60.20;;;;;;5024861;28;20072;-64
2021/03/22 11:05:54;;;;;;;31.00;6.05;;;6.50;60.30;;;;;;5043231;28;20037;-64
2021/03/22 11:08:28;;;;;;;27.55;5.00;;;6.50;59.90;;;;;;5025425;28;20373;-64
2021/03/22 11:11:06;;;;;;;19.83;4.38;;;6.40;59.50;;;;;;5042287;28;20037;-64
2021/03/22 11:13:35;;;;;;;22.73;5.28;;;6.60;59.50;;;;;;5025939;28;20060;-64
2021/03/22 11:16:00;;;;;;;19.23;4.95;;;6.50;59.00;;;;;;5040950;28;20287;-64
2021/03/22 11:18:27;;;;;;;23.25;4.72;;;6.60;58.00;;;;;;5023286;28;20034;-64
2021/03/22 11:20:54;;;;;;;21.55;4.95;;;6.80;58.90;;;;;;5006730;28;20230;-64
2021/03/22 11:23:41;;;;;;;27.17;5.45;;;6.80;58.90;;;;;;5039801;28;20064;-64
2021/03/22 11:26:12;;;;;;;20.95;4.97;;;6.90;58.10;;;;;;5010559;28;20068;-65
2021/03/22 11:28:38;;;;;;;25.92;4.22;;;7.10;58.40;;;;;;5032520;28;20041;-67
2021/03/22 11:31:13;;;;;;;20.73;5.25;;;7.10;57.50;;;;;;5040971;28;20217;-64
2021/03/22 11:33:41;;;;;;;27.80;5.13;;;7.00;57.20;;;;;;5025637;28;20025;-65
2021/03/22 11:36:14;;;;;;;21.60;5.07;;;7.00;57.40;;;;;;5043861;28;20029;-65
2021/03/22 11:38:52;;;;;;;24.80;5.13;;;7.00;57.60;;;;;;5042844;28;20229;-64
2021/03/22 11:41:41;;;;;;;24.48;4.90;;;6.80;58.40;;;;;;5025042;28;20289;-65
2021/03/22 11:44:18;;;;;;;25.08;5.20;;;6.60;58.10;;;;;;5042905;28;20321;-65
2021/03/22 11:46:44;;;;;;;23.50;5.28;;;6.40;59.00;;;;;;5044842;28;20329;-65
2021/03/22 11:49:45;;;;;;;27.50;5.35;;;6.30;59.30;;;;;;5045708;28;20060;-64
2021/03/22 11:52:26;;;;;;;19.05;4.72;;;6.30;60.80;;;;;;5045951;28;20080;-65
2021/03/22 11:55:06;;;;;;;23.50;5.10;;;6.30;60.40;;;;;;5045450;28;20278;-64
2021/03/22 11:57:37;;;;;;;25.50;6.72;;;6.20;60.40;;;;;;5045580;28;20175;-65
2021/03/22 12:00:08;;;;;;;22.70;4.53;;;6.20;60.20;;;;;;5047540;28;20038;-65
2021/03/22 12:03:09;;;;;;;17.20;4.05;;;6.10;58.90;;;;;;5045320;28;20280;-65
2021/03/22 12:05:39;;;;;;;19.75;5.00;;;6.10;58.60;;;;;;5046049;28;20030;-65
2021/03/22 12:08:34;;;;;;;18.20;4.25;;;5.80;58.20;;;;;;5044466;28;20320;-64
2021/03/22 12:11:01;;;;;;;16.52;4.40;;;6.00;58.90;;;;;;5045469;28;20084;-64
2021/03/22 12:13:26;;;;;;;23.35;5.15;;;6.00;58.70;;;;;;5045594;28;20045;-65
2021/03/22 12:15:52;;;;;;;19.30;4.38;;;6.00;58.20;;;;;;5045058;28;20038;-66
2021/03/22 12:18:27;;;;;;;25.55;4.80;;;6.10;58.40;;;;;;5043544;28;20259;-66
2021/03/22 12:20:52;;;;;;;24.08;4.40;;;6.10;59.10;;;;;;5026544;28;20072;-65
2021/03/22 12:23:18;;;;;;;20.50;4.60;;;6.10;59.40;;;;;;5025677;28;20372;-64
2021/03/22 12:25:43;;;;;;;13.48;4.15;;;6.00;60.00;;;;;;5037604;28;20037;-64
2021/03/22 12:28:09;;;;;;;19.35;4.35;;;5.90;60.30;;;;;;5045168;28;20038;-64
2021/03/22 12:30:35;;;;;;;18.10;4.43;;;5.90;59.80;;;;;;5011048;28;20033;-64
2021/03/22 12:33:01;;;;;;;15.95;4.20;;;5.80;60.40;;;;;;5046607;28;20052;-66
2021/03/22 12:35:34;;;;;;;17.25;4.72;;;5.90;59.70;;;;;;5044199;28;20037;-66
2021/03/22 12:38:00;;;;;;;12.75;4.28;;;5.80;59.10;;;;;;5045107;28;20202;-66
2021/03/22 12:40:26;;;;;;;17.25;5.43;;;5.80;59.60;;;;;;5027104;28;20367;-66
2021/03/22 12:42:52;;;;;;;21.48;4.47;;;5.60;60.40;;;;;;5043623;28;20037;-67
2021/03/22 12:45:23;;;;;;;19.23;5.13;;;5.70;59.90;;;;;;5043878;28;20209;-68
2021/03/22 12:47:50;;;;;;;17.77;4.50;;;5.70;60.00;;;;;;5045601;28;20037;-67
2021/03/22 12:50:27;;;;;;;22.80;4.43;;;5.80;60.80;;;;;;5043543;28;20091;-68
2021/03/22 12:52:53;;;;;;;23.00;4.85;;;5.80;60.40;;;;;;5044558;28;20037;-66
2021/03/22 12:55:20;;;;;;;18.60;4.53;;;5.80;60.80;;;;;;5043016;28;20386;-67
2021/03/22 12:57:45;;;;;;;22.17;4.80;;;5.80;61.10;;;;;;5027380;28;20037;-66
2021/03/22 13:00:12;;;;;;;23.90;4.90;;;5.70;60.70;;;;;;5046461;28;20037;-68
2021/03/22 13:02:38;;;;;;;23.80;4.72;;;5.80;61.60;;;;;;5042968;28;20106;-66
2021/03/22 13:05:16;;;;;;;23.77;4.30;;;5.70;61.60;;;;;;5043179;28;20034;-66
2021/03/22 13:07:42;;;;;;;23.73;4.47;;;5.70;61.10;;;;;;5043520;28;20148;-66
2021/03/22 13:10:08;;;;;;;15.30;4.30;;;5.60;60.40;;;;;;5044366;28;20037;-68
2021/03/22 13:12:35;;;;;;;17.55;4.05;;;5.50;60.60;;;;;;5042997;28;20029;-67
2021/03/22 13:15:00;;;;;;;16.60;4.15;;;5.60;59.80;;;;;;5045840;28;20018;-66